Time;durP1;ratioP1;P1;durP2;ratioP2;P2;SDS_P1;SDS_P2;PMS_P1;PMS_P2;Temp;Humidity;BMP_temperature;BMP_pressure;BME280_temperature;BME280_humidity;BME280_pressure;Samples;Min_cycle;Max_cycle;Signal;HPM_P1;HPM_P2
2022/06/26 00:00:25;;;;;;;;;;;;;;;;;;5103486;27;1465;-79
2022/06/26 00:02:50;;;;;;;;;;;;;;;;;;5086397;28;1554;-79
2022/06/26 00:05:16;;;;;;;;;;;;;;;;;;5107023;28;1164;-79
2022/06/26 00:07:41;;;;;;;;;;;;;;;;;;5089223;28;1897;-79
2022/06/26 00:10:07;;;;;;;;;;;;;;;;;;5113732;27;1230;-79
2022/06/26 00:12:33;;;;;;;;;;;;;;;;;;5096760;27;1259;-80
2022/06/26 00:14:59;;;;;;;;;;;;;;;;;;5116080;27;1169;-81
2022/06/26 00:17:24;;;;;;;;;;;;;;;;;;5125274;27;1224;-79
2022/06/26 00:19:49;;;;;;;;;;;;;;;;;;5127231;27;1291;-79
2022/06/26 00:22:14;;;;;;;;;;;;;;;;;;5105265;27;1300;-80
2022/06/26 00:24:42;;;;;;;;;;;;;;;;;;5118506;27;1181;-81
2022/06/26 00:27:08;;;;;;;;;;;;;;;;;;5107582;28;2010;-79
2022/06/26 00:29:34;;;;;;;;;;;;;;;;;;5120219;27;1128;-79
2022/06/26 00:31:59;;;;;;;;;;;;;;;;;;5108746;27;1360;-80
2022/06/26 00:34:24;;;;;;;;;;;;;;;;;;5122295;27;1238;-80
2022/06/26 00:36:50;;;;;;;;;;;;;;;;;;5108870;28;1096;-80
2022/06/26 00:39:15;;;;;;;;;;;;;;;;;;5109622;28;1357;-80
2022/06/26 00:41:40;;;;;;;;;;;;;;;;;;5108272;27;1261;-79
2022/06/26 00:44:16;;;;;;;;;;;;;;;;;;5122135;27;1340;-79
2022/06/26 00:46:42;;;;;;;;;;;;;;;;;;5130762;27;1890;-79
2022/06/26 00:49:07;;;;;;;;;;;;;;;;;;5124712;27;1020;-80
2022/06/26 00:51:34;;;;;;;;;;;;;;;;;;5140182;27;1267;-79
2022/06/26 00:53:59;;;;;;;;;;;;;;;;;;5139423;27;1319;-80
2022/06/26 00:56:24;;;;;;;;;;;;;;;;;;5125902;27;1186;-79
2022/06/26 00:58:50;;;;;;;;;;;;;;;;;;5130506;27;1183;-79
2022/06/26 01:01:15;;;;;;;;;;;;;;;;;;5122211;27;1284;-79
2022/06/26 01:03:41;;;;;;;;;;;;;;;;;;5137932;27;1022;-79
2022/06/26 01:06:07;;;;;;;;;;;;;;;;;;5144150;27;1917;-79
2022/06/26 01:08:34;;;;;;;;;;;;;;;;;;5118421;28;1402;-80
2022/06/26 01:11:00;;;;;;;;;;;;;;;;;;5134281;27;1226;-80
2022/06/26 01:13:25;;;;;;;;;;;;;;;;;;5120836;27;1237;-80
2022/06/26 01:15:53;;;;;;;;;;;;;;;;;;5099886;28;1238;-79
2022/06/26 01:18:19;;;;;;;;;;;;;;;;;;5128340;27;1182;-78
2022/06/26 01:20:44;;;;;;;;;;;;;;;;;;5128517;27;1136;-80
2022/06/26 01:23:10;;;;;;;;;;;;;;;;;;5120948;27;1229;-79
2022/06/26 01:25:45;;;;;;;;;;;;;;;;;;5127404;27;1886;-80
2022/06/26 01:28:11;;;;;;;;;;;;;;;;;;5099401;27;1215;-81
2022/06/26 01:30:36;;;;;;;;;;;;;;;;;;5115440;27;1201;-80
2022/06/26 01:33:01;;;;;;;;;;;;;;;;;;5108578;27;1081;-80
2022/06/26 01:35:27;;;;;;;;;;;;;;;;;;5120800;27;1275;-79
2022/06/26 01:37:56;;;;;;;;;;;;;;;;;;5117478;27;1164;-80
2022/06/26 01:40:21;;;;;;;;;;;;;;;;;;5108543;27;1293;-79
2022/06/26 01:42:46;;;;;;;;;;;;;;;;;;5105548;28;1280;-80
2022/06/26 01:45:13;;;;;;;;;;;;;;;;;;5119005;27;1249;-80
2022/06/26 01:47:39;;;;;;;;;;;;;;;;;;5096304;27;1972;-80
2022/06/26 01:50:04;;;;;;;;;;;;;;;;;;5113792;27;1155;-80
2022/06/26 01:52:29;;;;;;;;;;;;;;;;;;5134952;27;1194;-80
2022/06/26 01:54:55;;;;;;;;;;;;;;;;;;5113167;27;1286;-81
2022/06/26 01:57:21;;;;;;;;;;;;;;;;;;5108964;27;1194;-81
2022/06/26 01:59:46;;;;;;;;;;;;;;;;;;5125936;27;1155;-81
2022/06/26 02:02:11;;;;;;;;;;;;;;;;;;5118751;27;1218;-80
2022/06/26 02:04:36;;;;;;;;;;;;;;;;;;5114026;27;1171;-81
2022/06/26 02:07:02;;;;;;;;;;;;;;;;;;5108093;27;1894;-81
2022/06/26 02:15:06;;;;;;;;;;;;;;;;;;5134175;27;1014;-82
2022/06/26 02:17:32;;;;;;;;;;;;;;;;;;5093097;27;1190;-81
2022/06/26 02:19:59;;;;;;;;;;;;;;;;;;5112737;27;1154;-81
2022/06/26 02:22:24;;;;;;;;;;;;;;;;;;5124801;27;1273;-81
2022/06/26 02:24:49;;;;;;;;;;;;;;;;;;5112484;27;1248;-81
2022/06/26 02:27:15;;;;;;;;;;;;;;;;;;5122658;27;1947;-81
2022/06/26 02:29:40;;;;;;;;;;;;;;;;;;5110943;27;1258;-81
2022/06/26 02:32:06;;;;;;;;;;;;;;;;;;5097131;27;1308;-81
2022/06/26 02:34:31;;;;;;;;;;;;;;;;;;5104382;27;1316;-81
2022/06/26 02:36:56;;;;;;;;;;;;;;;;;;5110588;27;1235;-81
2022/06/26 02:39:21;;;;;;;;;;;;;;;;;;5121340;27;1127;-81
2022/06/26 02:41:48;;;;;;;;;;;;;;;;;;5112238;27;1287;-81
2022/06/26 02:44:15;;;;;;;;;;;;;;;;;;5114863;27;1183;-81
2022/06/26 02:46:40;;;;;;;;;;;;;;;;;;5110722;27;1981;-81
2022/06/26 02:49:06;;;;;;;;;;;;;;;;;;5105335;27;1311;-81
2022/06/26 02:51:31;;;;;;;;;;;;;;;;;;5114911;27;1181;-81
2022/06/26 02:53:56;;;;;;;;;;;;;;;;;;5118876;27;1135;-81
2022/06/26 02:56:21;;;;;;;;;;;;;;;;;;5090678;27;1337;-81
2022/06/26 02:58:47;;;;;;;;;;;;;;;;;;5111071;27;1214;-81
2022/06/26 03:01:12;;;;;;;;;;;;;;;;;;5108492;27;1235;-81
2022/06/26 03:03:38;;;;;;;;;;;;;;;;;;5104336;28;1226;-81
2022/06/26 03:06:06;;;;;;;;;;;;;;;;;;5110070;28;1898;-81
2022/06/26 03:08:31;;;;;;;;;;;;;;;;;;5093650;28;1366;-81
2022/06/26 03:10:56;;;;;;;;;;;;;;;;;;5124212;28;1287;-81
2022/06/26 03:13:22;;;;;;;;;;;;;;;;;;5116303;28;1218;-81
2022/06/26 03:15:47;;;;;;;;;;;;;;;;;;5107065;28;1093;-81
2022/06/26 03:18:12;;;;;;;;;;;;;;;;;;5113255;27;1249;-81
2022/06/26 03:20:40;;;;;;;;;;;;;;;;;;5125826;27;1183;-81
2022/06/26 03:23:06;;;;;;;;;;;;;;;;;;5106575;28;1371;-81
2022/06/26 03:25:31;;;;;;;;;;;;;;;;;;5095157;27;1894;-81
2022/06/26 03:27:56;;;;;;;;;;;;;;;;;;5101439;27;1088;-81
2022/06/26 03:30:22;;;;;;;;;;;;;;;;;;5084145;28;1236;-81
2022/06/26 03:32:47;;;;;;;;;;;;;;;;;;5106492;28;1272;-81
2022/06/26 03:35:12;;;;;;;;;;;;;;;;;;5115410;27;1136;-81
2022/06/26 03:37:37;;;;;;;;;;;;;;;;;;5099393;27;1220;-81
2022/06/26 03:40:03;;;;;;;;;;;;;;;;;;5117234;27;1402;-81
2022/06/26 03:42:29;;;;;;;;;;;;;;;;;;5110966;27;1260;-81
2022/06/26 03:44:54;;;;;;;;;;;;;;;;;;5107461;27;1296;-81
2022/06/26 03:47:19;;;;;;;;;;;;;;;;;;5117002;27;1969;-81
2022/06/26 03:49:45;;;;;;;;;;;;;;;;;;5122557;27;1139;-80
2022/06/26 03:52:10;;;;;;;;;;;;;;;;;;5127022;27;1212;-80
2022/06/26 03:54:36;;;;;;;;;;;;;;;;;;5123211;27;1568;-80
2022/06/26 03:57:01;;;;;;;;;;;;;;;;;;5123099;27;1088;-81
2022/06/26 03:59:26;;;;;;;;;;;;;;;;;;5126572;27;1202;-80
2022/06/26 04:01:52;;;;;;;;;;;;;;;;;;5090323;27;1272;-80
2022/06/26 04:04:17;;;;;;;;;;;;;;;;;;5128209;27;1183;-80
2022/06/26 04:06:42;;;;;;;;;;;;;;;;;;5111547;27;1893;-80
2022/06/26 04:09:09;;;;;;;;;;;;;;;;;;5116632;27;1363;-80
2022/06/26 04:11:34;;;;;;;;;;;;;;;;;;5093987;28;1399;-80
2022/06/26 04:14:01;;;;;;;;;;;;;;;;;;5087470;28;1121;-80
2022/06/26 04:16:38;;;;;;;;;;;;;;;;;;5085746;28;1284;-80
2022/06/26 04:19:04;;;;;;;;;;;;;;;;;;5110731;27;1147;-80
2022/06/26 04:21:29;;;;;;;;;;;;;;;;;;5125175;27;1138;-80
2022/06/26 04:23:55;;;;;;;;;;;;;;;;;;5088819;28;1296;-80
2022/06/26 04:26:20;;;;;;;;;;;;;;;;;;5120413;27;1893;-81
2022/06/26 04:28:48;;;;;;;;;;;;;;;;;;5094501;27;1271;-81
2022/06/26 04:31:14;;;;;;;;;;;;;;;;;;5109497;27;1182;-80
2022/06/26 04:33:39;;;;;;;;;;;;;;;;;;5117918;27;1299;-81
2022/06/26 04:36:04;;;;;;;;;;;;;;;;;;5112171;27;1096;-80
2022/06/26 04:38:30;;;;;;;;;;;;;;;;;;5116206;27;1214;-81
2022/06/26 04:40:55;;;;;;;;;;;;;;;;;;5128037;27;1135;-81
2022/06/26 04:43:20;;;;;;;;;;;;;;;;;;5117028;27;1128;-80
2022/06/26 04:45:45;;;;;;;;;;;;;;;;;;5101226;28;1902;-80
2022/06/26 04:48:19;;;;;;;;;;;;;;;;;;5107848;27;1100;-80
2022/06/26 04:50:45;;;;;;;;;;;;;;;;;;5121056;27;1226;-80
2022/06/26 04:53:15;;;;;;;;;;;;;;;;;;5116875;27;1234;-80
2022/06/26 04:55:41;;;;;;;;;;;;;;;;;;5106989;27;1380;-80
2022/06/26 04:58:06;;;;;;;;;;;;;;;;;;5111117;27;1191;-80
2022/06/26 05:00:31;;;;;;;;;;;;;;;;;;5108994;27;1172;-81
2022/06/26 05:02:57;;;;;;;;;;;;;;;;;;5117965;27;1273;-81
2022/06/26 05:05:22;;;;;;;;;;;;;;;;;;5109915;27;1135;-79
2022/06/26 05:07:47;;;;;;;;;;;;;;;;;;5098357;27;1889;-80
2022/06/26 05:10:14;;;;;;;;;;;;;;;;;;5111746;27;1179;-80
2022/06/26 05:12:40;;;;;;;;;;;;;;;;;;5119583;27;1194;-81
2022/06/26 05:15:07;;;;;;;;;;;;;;;;;;5121787;27;1347;-80
2022/06/26 05:17:33;;;;;;;;;;;;;;;;;;5097625;27;1227;-80
2022/06/26 05:19:58;;;;;;;;;;;;;;;;;;5123068;27;1158;-81
2022/06/26 05:22:24;;;;;;;;;;;;;;;;;;5124944;27;1115;-81
2022/06/26 05:24:49;;;;;;;;;;;;;;;;;;5122795;27;1190;-81
2022/06/26 05:27:19;;;;;;;;;;;;;;;;;;5105937;27;1866;-80
2022/06/26 05:29:45;;;;;;;;;;;;;;;;;;5101739;27;1344;-80
2022/06/26 05:32:10;;;;;;;;;;;;;;;;;;5122379;27;1316;-80
2022/06/26 05:34:36;;;;;;;;;;;;;;;;;;5091269;28;1319;-81
2022/06/26 05:37:01;;;;;;;;;;;;;;;;;;5103487;28;1519;-80
2022/06/26 05:39:26;;;;;;;;;;;;;;;;;;5092532;28;1198;-80
2022/06/26 05:41:51;;;;;;;;;;;;;;;;;;5088729;27;1356;-81
2022/06/26 05:44:20;;;;;;;;;;;;;;;;;;5100871;27;1214;-80
2022/06/26 05:46:45;;;;;;;;;;;;;;;;;;5114211;27;1906;-80
2022/06/26 05:49:10;;;;;;;;;;;;;;;;;;5121669;27;1147;-80
2022/06/26 05:51:36;;;;;;;;;;;;;;;;;;5122922;27;1309;-80
2022/06/26 05:54:01;;;;;;;;;;;;;;;;;;5103298;27;1189;-80
2022/06/26 05:56:29;;;;;;;;;;;;;;;;;;5095481;28;1359;-81
2022/06/26 05:59:07;;;;;;;;;;;;;;;;;;5110028;27;1160;-81
2022/06/26 06:01:51;;;;;;;;;;;;;;;;;;5108959;27;1277;-80
2022/06/26 06:04:26;;;;;;;;;;;;;;;;;;5114426;27;1239;-80
2022/06/26 06:06:51;;;;;;;;;;;;;;;;;;5112141;27;1924;-81
2022/06/26 06:09:16;;;;;;;;;;;;;;;;;;5097031;27;1210;-80
2022/06/26 06:11:41;;;;;;;;;;;;;;;;;;5119918;27;1040;-81
2022/06/26 06:14:10;;;;;;;;;;;;;;;;;;5096151;27;1160;-80
2022/06/26 06:16:36;;;;;;;;;;;;;;;;;;5092010;28;1183;-81
2022/06/26 06:19:01;;;;;;;;;;;;;;;;;;5109411;27;1301;-81
2022/06/26 06:21:27;;;;;;;;;;;;;;;;;;5098768;28;1207;-81
2022/06/26 06:23:52;;;;;;;;;;;;;;;;;;5121037;27;1463;-80
2022/06/26 06:26:17;;;;;;;;;;;;;;;;;;5102036;27;1905;-81
2022/06/26 06:28:43;;;;;;;;;;;;;;;;;;5106708;27;1124;-80
2022/06/26 06:31:08;;;;;;;;;;;;;;;;;;5107084;27;1364;-79
2022/06/26 06:33:33;;;;;;;;;;;;;;;;;;5099570;27;1354;-79
2022/06/26 06:35:59;;;;;;;;;;;;;;;;;;5086165;28;1247;-80
2022/06/26 06:38:25;;;;;;;;;;;;;;;;;;5103459;28;1255;-79
2022/06/26 06:40:50;;;;;;;;;;;;;;;;;;5104443;28;1341;-79
2022/06/26 06:43:16;;;;;;;;;;;;;;;;;;5109698;27;1209;-79
2022/06/26 06:45:41;;;;;;;;;;;;;;;;;;5117830;27;1905;-79
2022/06/26 06:48:08;;;;;;;;;;;;;;;;;;5102986;27;1281;-79
2022/06/26 06:50:33;;;;;;;;;;;;;;;;;;5103741;28;1136;-80
2022/06/26 06:52:58;;;;;;;;;;;;;;;;;;5107093;27;1140;-80
2022/06/26 06:55:33;;;;;;;;;;;;;;;;;;5123235;27;1327;-81
2022/06/26 06:57:58;;;;;;;;;;;;;;;;;;5106598;28;1328;-80
2022/06/26 07:00:33;;;;;;;;;;;;;;;;;;5109833;27;1251;-79
2022/06/26 07:02:59;;;;;;;;;;;;;;;;;;5110209;27;1165;-79
2022/06/26 07:05:28;;;;;;;;;;;;;;;;;;5087847;28;1398;-80
2022/06/26 07:07:53;;;;;;;;;;;;;;;;;;5102891;28;1953;-81
2022/06/26 07:10:19;;;;;;;;;;;;;;;;;;5089948;28;1403;-79
2022/06/26 07:12:58;;;;;;;;;;;;;;;;;;5118394;28;1173;-79
2022/06/26 07:15:23;;;;;;;;;;;;;;;;;;5107764;28;1112;-79
2022/06/26 07:17:48;;;;;;;;;;;;;;;;;;5101953;28;1048;-80
2022/06/26 07:20:14;;;;;;;;;;;;;;;;;;5105973;28;1175;-80
2022/06/26 07:22:39;;;;;;;;;;;;;;;;;;5116729;28;1182;-78
2022/06/26 07:25:05;;;;;;;;;;;;;;;;;;5113230;28;1135;-80
2022/06/26 07:27:30;;;;;;;;;;;;;;;;;;5100638;28;1964;-79
2022/06/26 07:29:55;;;;;;;;;;;;;;;;;;5119401;27;1171;-79
2022/06/26 07:32:20;;;;;;;;;;;;;;;;;;5107518;28;1032;-79
2022/06/26 07:34:46;;;;;;;;;;;;;;;;;;5105263;27;1078;-79
2022/06/26 07:37:11;;;;;;;;;;;;;;;;;;5094732;28;1190;-81
2022/06/26 07:39:36;;;;;;;;;;;;;;;;;;5084939;28;1156;-80
2022/06/26 07:42:01;;;;;;;;;;;;;;;;;;5110919;28;1147;-80
2022/06/26 07:44:27;;;;;;;;;;;;;;;;;;5119892;28;1246;-80
2022/06/26 07:46:53;;;;;;;;;;;;;;;;;;5114247;28;1913;-80
2022/06/26 07:49:18;;;;;;;;;;;;;;;;;;5090321;28;1207;-80
2022/06/26 07:51:44;;;;;;;;;;;;;;;;;;5084487;28;1197;-81
2022/06/26 07:54:09;;;;;;;;;;;;;;;;;;5103221;28;1317;-82
2022/06/26 07:56:35;;;;;;;;;;;;;;;;;;5109135;28;1159;-80
2022/06/26 07:59:04;;;;;;;;;;;;;;;;;;5119146;27;1283;-80
2022/06/26 08:01:31;;;;;;;;;;;;;;;;;;5123730;27;1178;-80
2022/06/26 08:03:57;;;;;;;;;;;;;;;;;;5091841;27;1263;-80
2022/06/26 08:06:22;;;;;;;;;;;;;;;;;;5125354;27;1937;-81
2022/06/26 08:08:47;;;;;;;;;;;;;;;;;;5108546;28;1152;-81
2022/06/26 08:11:12;;;;;;;;;;;;;;;;;;5123420;27;1136;-81
2022/06/26 08:13:38;;;;;;;;;;;;;;;;;;5119675;27;1123;-78
2022/06/26 08:16:03;;;;;;;;;;;;;;;;;;5105515;27;1195;-78
2022/06/26 08:18:28;;;;;;;;;;;;;;;;;;5127246;27;1253;-82
2022/06/26 08:20:54;;;;;;;;;;;;;;;;;;5111476;27;1220;-78
2022/06/26 08:23:19;;;;;;;;;;;;;;;;;;5132702;27;1115;-80
2022/06/26 08:25:44;;;;;;;;;;;;;;;;;;5128824;27;1946;-80
2022/06/26 08:28:10;;;;;;;;;;;;;;;;;;5115190;27;1339;-77
2022/06/26 08:30:36;;;;;;;;;;;;;;;;;;5128072;27;794;-80
2022/06/26 08:33:01;;;;;;;;;;;;;;;;;;5131539;27;1163;-78
2022/06/26 08:35:27;;;;;;;;;;;;;;;;;;5130215;27;972;-78
2022/06/26 08:37:53;;;;;;;;;;;;;;;;;;5131576;27;786;-78
2022/06/26 08:40:18;;;;;;;;;;;;;;;;;;5130865;27;860;-78
2022/06/26 08:42:44;;;;;;;;;;;;;;;;;;5112455;27;1292;-78
2022/06/26 08:45:13;;;;;;;;;;;;;;;;;;5111156;27;1269;-77
2022/06/26 08:47:40;;;;;;;;;;;;;;;;;;5110478;27;1906;-78
2022/06/26 08:50:09;;;;;;;;;;;;;;;;;;5114239;27;996;-78
2022/06/26 08:52:44;;;;;;;;;;;;;;;;;;5114539;27;1234;-78
2022/06/26 08:55:09;;;;;;;;;;;;;;;;;;5113623;27;1052;-79
2022/06/26 08:57:34;;;;;;;;;;;;;;;;;;5114808;27;1134;-78
2022/06/26 09:00:00;;;;;;;;;;;;;;;;;;5102894;27;1365;-78
2022/06/26 09:02:25;;;;;;;;;;;;;;;;;;5138233;27;1087;-78
2022/06/26 09:04:50;;;;;;;;;;;;;;;;;;5094540;27;1061;-79
2022/06/26 09:07:16;;;;;;;;;;;;;;;;;;5111569;27;2013;-78
2022/06/26 09:09:44;;;;;;;;;;;;;;;;;;5111269;27;794;-79
2022/06/26 09:12:09;;;;;;;;;;;;;;;;;;5128702;27;766;-79
2022/06/26 09:14:35;;;;;;;;;;;;;;;;;;5110970;27;1245;-78
2022/06/26 09:17:01;;;;;;;;;;;;;;;;;;5121894;27;1199;-79
2022/06/26 09:19:29;;;;;;;;;;;;;;;;;;5090941;27;1203;-79
2022/06/26 09:22:14;;;;;;;;;;;;;;;;;;5127328;27;1143;-80
2022/06/26 09:25:00;;;;;;;;;;;;;;;;;;5109868;27;1282;-79
2022/06/26 09:27:26;;;;;;;;;;;;;;;;;;5116611;27;1889;-79
2022/06/26 09:29:55;;;;;;;;;;;;;;;;;;5140462;27;1147;-80
2022/06/26 09:32:22;;;;;;;;;;;;;;;;;;5106346;27;1201;-79
2022/06/26 09:34:51;;;;;;;;;;;;;;;;;;5109776;27;1295;-79
2022/06/26 09:37:18;;;;;;;;;;;;;;;;;;5128968;27;901;-79
2022/06/26 09:39:46;;;;;;;;;;;;;;;;;;5110117;27;1181;-79
2022/06/26 09:42:11;;;;;;;;;;;;;;;;;;5110959;27;1139;-79
2022/06/26 09:44:43;;;;;;;;;;;;;;;;;;5127945;27;770;-80
2022/06/26 09:47:18;;;;;;;;;;;;;;;;;;5105454;27;1965;-79
2022/06/26 09:49:46;;;;;;;;;;;;;;;;;;5109844;27;1316;-79
2022/06/26 09:52:11;;;;;;;;;;;;;;;;;;5110509;27;1239;-79
2022/06/26 09:54:43;;;;;;;;;;;;;;;;;;5093989;27;1198;-79
2022/06/26 09:57:09;;;;;;;;;;;;;;;;;;5093379;27;1314;-79
2022/06/26 09:59:35;;;;;;;;;;;;;;;;;;5091727;27;1281;-79
2022/06/26 10:07:29;;;;;;;;;;;;;;;;;;5149026;27;1976;-79
2022/06/26 10:09:55;;;;;;;;;;;;;;;;;;5110684;27;1154;-79
2022/06/26 10:12:20;;;;;;;;;;;;;;;;;;5129853;27;1209;-78
2022/06/26 10:14:50;;;;;;;;;;;;;;;;;;5145846;27;837;-79
2022/06/26 10:17:28;;;;;;;;;;;;;;;;;;5125731;27;871;-78
2022/06/26 10:19:58;;;;;;;;;;;;;;;;;;5146860;27;948;-79
2022/06/26 10:22:24;;;;;;;;;;;;;;;;;;5129811;27;1178;-79
2022/06/26 10:24:52;;;;;;;;;;;;;;;;;;5128452;27;1229;-79
2022/06/26 10:27:22;;;;;;;;;;;;;;;;;;5146674;27;1889;-79
2022/06/26 10:30:02;;;;;;;;;;;;;;;;;;5143830;27;1071;-78
2022/06/26 10:32:27;;;;;;;;;;;;;;;;;;5143858;27;1343;-79
2022/06/26 10:34:56;;;;;;;;;;;;;;;;;;5126632;27;1254;-79
2022/06/26 10:37:21;;;;;;;;;;;;;;;;;;5145764;27;1166;-79
2022/06/26 10:39:51;;;;;;;;;;;;;;;;;;5145639;27;1210;-77
2022/06/26 10:45:27;;;;;;;;;;;;;;;;;;5141753;27;1127;-75
2022/06/26 10:47:53;;;;;;;;;;;;;;;;;;5100932;27;1902;-75
2022/06/26 10:50:21;;;;;;;;;;;;;;;;;;5132252;27;1174;-75
2022/06/26 10:52:47;;;;;;;;;;;;;;;;;;5116933;27;1296;-76
2022/06/26 10:55:13;;;;;;;;;;;;;;;;;;5105488;27;1268;-75
2022/06/26 10:57:38;;;;;;;;;;;;;;;;;;5124720;27;1232;-75
2022/06/26 11:00:10;;;;;;;;;;;;;;;;;;5113674;27;1210;-76
2022/06/26 11:02:37;;;;;;;;;;;;;;;;;;5123246;27;1354;-75
2022/06/26 11:05:03;;;;;;;;;;;;;;;;;;5125631;27;1203;-76
2022/06/26 11:07:28;;;;;;;;;;;;;;;;;;5116535;27;1986;-75
2022/06/26 11:09:57;;;;;;;;;;;;;;;;;;5145099;27;1184;-76
2022/06/26 11:12:22;;;;;;;;;;;;;;;;;;5126935;27;1225;-76
2022/06/26 11:14:51;;;;;;;;;;;;;;;;;;5106516;27;1139;-74
2022/06/26 11:17:22;;;;;;;;;;;;;;;;;;5107502;27;1252;-73
2022/06/26 11:22:31;;;;;;;;;;;;;;;;;;5125862;27;1020;-74
2022/06/26 11:24:56;;;;;;;;;;;;;;;;;;5105708;27;1360;-73
2022/06/26 11:27:22;;;;;;;;;;;;;;;;;;5123933;27;1916;-74
2022/06/26 11:29:57;;;;;;;;;;;;;;;;;;5101203;27;1222;-73
2022/06/26 11:32:22;;;;;;;;;;;;;;;;;;5102596;27;1444;-73
2022/06/26 11:34:49;;;;;;;;;;;;;;;;;;5106207;27;1191;-73
2022/06/26 11:37:14;;;;;;;;;;;;;;;;;;5105488;27;1258;-73
2022/06/26 11:39:40;;;;;;;;;;;;;;;;;;5110880;27;1270;-73
2022/06/26 11:42:21;;;;;;;;;;;;;;;;;;5127622;27;1219;-73
2022/06/26 11:44:59;;;;;;;;;;;;;;;;;;5125612;27;1051;-73
2022/06/26 11:47:24;;;;;;;;;;;;;;;;;;5103788;27;1983;-73
2022/06/26 11:49:50;;;;;;;;;;;;;;;;;;5127202;27;1147;-73
2022/06/26 11:52:16;;;;;;;;;;;;;;;;;;5110389;27;1179;-73
2022/06/26 11:54:41;;;;;;;;;;;;;;;;;;5147759;27;1293;-73
2022/06/26 11:57:10;;;;;;;;;;;;;;;;;;5125808;27;1292;-73
2022/06/26 11:59:42;;;;;;;;;;;;;;;;;;5128772;27;1250;-73
2022/06/26 12:02:18;;;;;;;;;;;;;;;;;;5111787;27;1179;-72
2022/06/26 12:05:02;;;;;;;;;;;;;;;;;;5108655;27;1175;-73
2022/06/26 12:07:42;;;;;;;;;;;;;;;;;;5146877;27;1979;-70
2022/06/26 12:10:08;;;;;;;;;;;;;;;;;;5126366;27;1205;-75
2022/06/26 12:12:34;;;;;;;;;;;;;;;;;;5106674;27;1268;-74
2022/06/26 12:14:59;;;;;;;;;;;;;;;;;;5109681;27;1234;-75
2022/06/26 12:17:26;;;;;;;;;;;;;;;;;;5102781;27;1294;-75
2022/06/26 12:19:51;;;;;;;;;;;;;;;;;;5123609;27;1230;-75
2022/06/26 12:22:31;;;;;;;;;;;;;;;;;;5104609;27;1287;-75
2022/06/26 12:25:00;;;;;;;;;;;;;;;;;;5126120;27;1190;-74
2022/06/26 12:27:35;;;;;;;;;;;;;;;;;;5106210;27;1967;-72
2022/06/26 12:30:00;;;;;;;;;;;;;;;;;;5122797;27;1277;-75
2022/06/26 12:32:25;;;;;;;;;;;;;;;;;;5121478;27;1341;-75
2022/06/26 12:34:51;;;;;;;;;;;;;;;;;;5111876;27;1296;-76
2022/06/26 12:37:16;;;;;;;;;;;;;;;;;;5115229;27;1139;-73
2022/06/26 12:39:41;;;;;;;;;;;;;;;;;;5090712;27;1206;-75
2022/06/26 12:42:06;;;;;;;;;;;;;;;;;;5106945;27;1151;-73
2022/06/26 12:44:32;;;;;;;;;;;;;;;;;;5139602;27;1201;-73
2022/06/26 12:47:07;;;;;;;;;;;;;;;;;;5123753;27;1914;-75
2022/06/26 12:49:33;;;;;;;;;;;;;;;;;;5146263;27;1185;-74
2022/06/26 12:51:59;;;;;;;;;;;;;;;;;;5109144;27;1194;-74
2022/06/26 12:54:25;;;;;;;;;;;;;;;;;;5117469;27;1102;-74
2022/06/26 12:56:50;;;;;;;;;;;;;;;;;;5127869;27;1139;-73
2022/06/26 12:59:15;;;;;;;;;;;;;;;;;;5106673;27;1285;-76
2022/06/26 13:01:44;;;;;;;;;;;;;;;;;;5095324;28;1143;-76
2022/06/26 13:04:09;;;;;;;;;;;;;;;;;;5105496;27;1234;-76
2022/06/26 13:06:34;;;;;;;;;;;;;;;;;;5106247;27;1889;-76
2022/06/26 13:09:06;;;;;;;;;;;;;;;;;;5125370;27;1135;-74
2022/06/26 13:11:31;;;;;;;;;;;;;;;;;;5119198;27;1300;-76
2022/06/26 13:14:06;;;;;;;;;;;;;;;;;;5146731;27;1138;-76
2022/06/26 13:16:44;;;;;;;;;;;;;;;;;;5125066;27;1197;-75
2022/06/26 13:19:10;;;;;;;;;;;;;;;;;;5124294;27;1128;-76
2022/06/26 13:21:35;;;;;;;;;;;;;;;;;;5108917;27;1581;-74
2022/06/26 13:24:05;;;;;;;;;;;;;;;;;;5089156;27;1286;-75
2022/06/26 13:26:30;;;;;;;;;;;;;;;;;;5113675;27;1936;-74
2022/06/26 13:29:16;;;;;;;;;;;;;;;;;;5098666;27;1175;-75
2022/06/26 13:31:41;;;;;;;;;;;;;;;;;;5128696;27;1254;-74
2022/06/26 13:34:06;;;;;;;;;;;;;;;;;;5132698;27;1214;-74
2022/06/26 13:36:32;;;;;;;;;;;;;;;;;;5106714;27;1209;-77
2022/06/26 13:38:57;;;;;;;;;;;;;;;;;;5124993;27;1171;-74
2022/06/26 13:41:23;;;;;;;;;;;;;;;;;;5099586;27;1345;-76
2022/06/26 13:43:48;;;;;;;;;;;;;;;;;;5112712;27;1164;-76
2022/06/26 13:46:13;;;;;;;;;;;;;;;;;;5139059;27;1964;-74
2022/06/26 13:48:39;;;;;;;;;;;;;;;;;;5086359;27;1189;-76
2022/06/26 13:51:09;;;;;;;;;;;;;;;;;;5119598;27;1139;-77
2022/06/26 13:53:35;;;;;;;;;;;;;;;;;;5113579;27;1293;-76
2022/06/26 13:56:00;;;;;;;;;;;;;;;;;;5107712;27;1305;-75
2022/06/26 13:58:25;;;;;;;;;;;;;;;;;;5144469;27;1123;-75
2022/06/26 14:00:50;;;;;;;;;;;;;;;;;;5104108;27;1284;-75
2022/06/26 14:03:16;;;;;;;;;;;;;;;;;;5084089;27;1121;-75
2022/06/26 14:05:41;;;;;;;;;;;;;;;;;;5107860;27;1230;-75
2022/06/26 14:08:16;;;;;;;;;;;;;;;;;;5105795;27;1898;-75
2022/06/26 14:10:41;;;;;;;;;;;;;;;;;;5116851;27;1219;-73
2022/06/26 14:13:10;;;;;;;;;;;;;;;;;;5126861;27;1183;-74
2022/06/26 14:15:35;;;;;;;;;;;;;;;;;;5113641;27;1343;-75
2022/06/26 14:18:01;;;;;;;;;;;;;;;;;;5107403;27;1266;-73
2022/06/26 14:20:26;;;;;;;;;;;;;;;;;;5116563;27;1261;-75
2022/06/26 14:25:57;;;;;;;;;;;;;;;;;;5137892;27;1023;-76
2022/06/26 14:28:26;;;;;;;;;;;;;;;;;;5122565;27;1944;-77
2022/06/26 14:30:52;;;;;;;;;;;;;;;;;;5118970;27;1209;-74
2022/06/26 14:33:17;;;;;;;;;;;;;;;;;;5133293;27;1111;-75
2022/06/26 14:35:43;;;;;;;;;;;;;;;;;;5139772;27;1174;-75
2022/06/26 14:38:12;;;;;;;;;;;;;;;;;;5102249;27;1357;-75
2022/06/26 14:40:37;;;;;;;;;;;;;;;;;;5115236;27;1281;-74
2022/06/26 14:43:04;;;;;;;;;;;;;;;;;;5135399;27;1352;-75
2022/06/26 14:45:29;;;;;;;;;;;;;;;;;;5126989;27;1265;-75
2022/06/26 14:47:54;;;;;;;;;;;;;;;;;;5119904;27;1909;-76
2022/06/26 14:50:19;;;;;;;;;;;;;;;;;;5096808;27;1315;-76
2022/06/26 14:52:45;;;;;;;;;;;;;;;;;;5129860;27;1207;-76
2022/06/26 14:55:14;;;;;;;;;;;;;;;;;;5108075;27;1352;-76
2022/06/26 14:57:40;;;;;;;;;;;;;;;;;;5101800;27;1210;-75
2022/06/26 15:00:19;;;;;;;;;;;;;;;;;;5128007;27;1167;-74
2022/06/26 15:02:44;;;;;;;;;;;;;;;;;;5100860;27;1298;-74
2022/06/26 15:05:19;;;;;;;;;;;;;;;;;;5089425;27;1493;-73
2022/06/26 15:07:44;;;;;;;;;;;;;;;;;;5135124;27;1969;-74
2022/06/26 15:10:16;;;;;;;;;;;;;;;;;;5119610;27;1325;-74
2022/06/26 15:12:41;;;;;;;;;;;;;;;;;;5118006;27;1277;-75
2022/06/26 15:15:27;;;;;;;;;;;;;;;;;;5134264;27;1174;-72
2022/06/26 15:17:52;;;;;;;;;;;;;;;;;;5120614;27;1325;-73
2022/06/26 15:20:18;;;;;;;;;;;;;;;;;;5084591;27;1207;-79
2022/06/26 15:22:46;;;;;;;;;;;;;;;;;;5123198;27;1238;-78
2022/06/26 15:25:14;;;;;;;;;;;;;;;;;;5107781;27;1135;-78
2022/06/26 15:27:40;;;;;;;;;;;;;;;;;;5099839;27;1951;-78
2022/06/26 15:30:06;;;;;;;;;;;;;;;;;;5127332;27;1111;-78
2022/06/26 15:32:32;;;;;;;;;;;;;;;;;;5095878;27;1386;-79
2022/06/26 15:34:58;;;;;;;;;;;;;;;;;;5107302;27;1210;-77
2022/06/26 15:37:25;;;;;;;;;;;;;;;;;;5089381;27;1371;-77
2022/06/26 15:39:50;;;;;;;;;;;;;;;;;;5104454;27;1274;-76
2022/06/26 15:42:21;;;;;;;;;;;;;;;;;;5103626;27;1489;-77
2022/06/26 15:44:47;;;;;;;;;;;;;;;;;;5104036;27;1304;-78
2022/06/26 15:47:12;;;;;;;;;;;;;;;;;;5083637;27;1918;-78
2022/06/26 15:49:37;;;;;;;;;;;;;;;;;;5122221;27;1195;-77
2022/06/26 15:52:03;;;;;;;;;;;;;;;;;;5105488;27;1402;-78
2022/06/26 15:54:28;;;;;;;;;;;;;;;;;;5140224;27;1076;-77
2022/06/26 15:56:53;;;;;;;;;;;;;;;;;;5144540;27;1064;-77
2022/06/26 15:59:21;;;;;;;;;;;;;;;;;;5122568;27;1136;-79
2022/06/26 16:01:48;;;;;;;;;;;;;;;;;;5105088;27;1312;-80
2022/06/26 16:04:13;;;;;;;;;;;;;;;;;;5123713;27;1143;-79
2022/06/26 16:06:38;;;;;;;;;;;;;;;;;;5108244;27;1898;-80
2022/06/26 16:09:04;;;;;;;;;;;;;;;;;;5092926;27;1214;-80
2022/06/26 16:11:29;;;;;;;;;;;;;;;;;;5106212;27;1333;-80
2022/06/26 16:14:15;;;;;;;;;;;;;;;;;;5123863;27;1210;-80
2022/06/26 16:16:41;;;;;;;;;;;;;;;;;;5090128;27;1237;-78
2022/06/26 16:19:06;;;;;;;;;;;;;;;;;;5090815;27;1191;-79
2022/06/26 16:21:31;;;;;;;;;;;;;;;;;;5103586;27;1313;-79
2022/06/26 16:26:40;;;;;;;;;;;;;;;;;;5144427;27;1893;-78
2022/06/26 16:29:06;;;;;;;;;;;;;;;;;;5135619;27;1139;-78
2022/06/26 16:31:35;;;;;;;;;;;;;;;;;;5086295;27;1214;-79
2022/06/26 16:34:01;;;;;;;;;;;;;;;;;;5091735;27;1325;-78
2022/06/26 16:36:27;;;;;;;;;;;;;;;;;;5107528;27;1159;-78
2022/06/26 16:38:53;;;;;;;;;;;;;;;;;;5090723;27;1310;-78
2022/06/26 16:41:26;;;;;;;;;;;;;;;;;;5125400;27;1167;-78
2022/06/26 16:43:52;;;;;;;;;;;;;;;;;;5118859;27;1186;-78
2022/06/26 16:46:17;;;;;;;;;;;;;;;;;;5105842;27;1913;-79
2022/06/26 16:48:43;;;;;;;;;;;;;;;;;;5114268;27;1187;-79
2022/06/26 16:51:08;;;;;;;;;;;;;;;;;;5113239;27;1230;-79
2022/06/26 16:53:34;;;;;;;;;;;;;;;;;;5102992;27;1124;-79
2022/06/26 16:56:00;;;;;;;;;;;;;;;;;;5114629;27;1273;-80
2022/06/26 16:58:28;;;;;;;;;;;;;;;;;;5126753;27;1219;-78
2022/06/26 17:00:54;;;;;;;;;;;;;;;;;;5094159;27;1324;-79
2022/06/26 17:03:19;;;;;;;;;;;;;;;;;;5139921;27;1198;-79
2022/06/26 17:05:44;;;;;;;;;;;;;;;;;;5096989;27;1296;-78
2022/06/26 17:08:10;;;;;;;;;;;;;;;;;;5091064;27;1894;-79
2022/06/26 17:10:35;;;;;;;;;;;;;;;;;;5123556;27;1285;-79
2022/06/26 17:13:01;;;;;;;;;;;;;;;;;;5120892;27;1277;-77
2022/06/26 17:15:27;;;;;;;;;;;;;;;;;;5126349;27;1388;-76
2022/06/26 17:17:52;;;;;;;;;;;;;;;;;;5114241;27;1226;-75
2022/06/26 17:20:19;;;;;;;;;;;;;;;;;;5095410;27;1285;-78
2022/06/26 17:22:44;;;;;;;;;;;;;;;;;;5112622;27;1242;-78